createdAt,value
2017-11-05T00:00:41.757Z,14.30
2017-11-05T00:03:10.057Z,14.30
2017-11-05T00:05:40.002Z,14.20
2017-11-05T00:08:08.346Z,14.20
2017-11-05T00:10:36.922Z,14.20
2017-11-05T00:13:05.201Z,14.20
2017-11-05T00:15:33.526Z,14.20
2017-11-05T00:18:02.568Z,14.20
2017-11-05T00:20:30.895Z,14.20
2017-11-05T00:22:59.184Z,14.20
2017-11-05T00:25:27.551Z,14.10
2017-11-05T00:27:55.817Z,14.10
2017-11-05T00:30:24.893Z,14.10
2017-11-05T00:32:53.165Z,14.10
2017-11-05T00:35:21.414Z,14.10
2017-11-05T00:37:49.719Z,14.00
2017-11-05T00:40:18.028Z,14.00
2017-11-05T00:42:47.091Z,13.90
2017-11-05T00:45:16.289Z,13.90
2017-11-05T00:47:44.567Z,13.90
2017-11-05T00:50:12.861Z,13.90
2017-11-05T00:52:41.143Z,13.90
2017-11-05T00:55:09.467Z,13.90
2017-11-05T00:57:37.721Z,13.80
2017-11-05T01:00:06.003Z,13.90
2017-11-05T01:02:34.383Z,13.90
2017-11-05T01:05:03.419Z,13.80
2017-11-05T01:07:31.681Z,13.80
2017-11-05T01:09:59.924Z,13.80
2017-11-05T01:12:28.239Z,13.80
2017-11-05T01:14:56.497Z,13.70
2017-11-05T01:17:24.797Z,13.70
2017-11-05T01:19:53.058Z,13.70
2017-11-05T01:22:21.349Z,13.70
2017-11-05T01:24:49.655Z,13.70
2017-11-05T01:27:17.870Z,13.70
2017-11-05T01:29:46.150Z,13.70
2017-11-05T01:32:15.198Z,13.70
2017-11-05T01:34:43.495Z,13.70
2017-11-05T01:37:11.729Z,13.70
2017-11-05T01:39:39.972Z,13.70
2017-11-05T01:42:08.310Z,13.70
2017-11-05T01:44:36.577Z,13.70
2017-11-05T01:47:04.825Z,13.70
2017-11-05T01:49:33.120Z,13.60
2017-11-05T01:52:01.450Z,13.70
2017-11-05T01:54:29.731Z,13.70
2017-11-05T01:56:58.792Z,13.60
2017-11-05T01:59:27.056Z,13.60
2017-11-05T02:01:55.322Z,13.50
2017-11-05T02:04:23.596Z,13.40
2017-11-05T02:06:51.966Z,13.30
2017-11-05T02:09:20.327Z,13.30
2017-11-05T02:11:48.607Z,13.20
2017-11-05T02:14:16.878Z,13.10
2017-11-05T02:16:45.937Z,13.10
2017-11-05T02:19:14.198Z,13.10
2017-11-05T02:21:42.514Z,13.10
2017-11-05T02:24:20.759Z,13.10
2017-11-05T02:26:49.047Z,13.00
2017-11-05T02:29:17.343Z,13.00
2017-11-05T02:31:45.619Z,13.10
2017-11-05T02:34:13.910Z,12.90
2017-11-05T02:36:42.169Z,13.00
2017-11-05T02:39:10.526Z,12.90
2017-11-05T02:41:38.798Z,12.90
2017-11-05T02:44:07.100Z,12.80
2017-11-05T02:46:35.370Z,12.90
2017-11-05T02:49:03.667Z,12.90
2017-11-05T02:51:31.971Z,13.00
2017-11-05T02:54:01.029Z,12.60
2017-11-05T02:56:29.345Z,12.60
2017-11-05T02:58:57.578Z,12.50
2017-11-05T03:01:26.524Z,12.40
2017-11-05T03:03:54.811Z,12.30
2017-11-05T03:06:23.093Z,12.30
2017-11-05T03:08:51.418Z,12.30
2017-11-05T03:11:19.701Z,12.40
2017-11-05T03:13:47.979Z,12.30
2017-11-05T03:16:16.282Z,12.20
2017-11-05T03:18:44.570Z,12.20
2017-11-05T03:21:13.662Z,12.20
2017-11-05T03:23:42.927Z,12.20
2017-11-05T03:26:11.255Z,12.20
2017-11-05T03:28:39.580Z,12.30
2017-11-05T03:31:07.894Z,12.20
2017-11-05T03:33:36.939Z,12.20
2017-11-05T03:36:05.227Z,12.10
2017-11-05T03:38:33.500Z,12.10
2017-11-05T03:41:01.788Z,11.90
2017-11-05T03:43:30.084Z,11.80
2017-11-05T03:45:58.378Z,11.80
2017-11-05T03:48:26.700Z,11.80
2017-11-05T03:50:54.963Z,11.70
2017-11-05T03:53:23.260Z,11.60
2017-11-05T03:55:51.577Z,11.60
2017-11-05T03:58:20.630Z,11.50
2017-11-05T04:00:49.275Z,11.50
2017-11-05T04:03:17.555Z,11.50
2017-11-05T04:05:46.767Z,11.50
2017-11-05T04:08:15.828Z,11.50
2017-11-05T04:10:44.096Z,11.50
2017-11-05T04:13:12.502Z,11.50
2017-11-05T04:15:40.754Z,11.40
2017-11-05T04:18:09.047Z,11.40
2017-11-05T04:20:38.095Z,11.40
2017-11-05T04:23:07.826Z,11.30
2017-11-05T04:25:36.109Z,11.30
2017-11-05T04:28:04.419Z,11.30
2017-11-05T04:30:32.712Z,11.30
2017-11-05T04:33:01.010Z,11.30
2017-11-05T04:35:29.349Z,11.30
2017-11-05T04:37:57.602Z,11.30
2017-11-05T04:40:25.882Z,11.30
2017-11-05T04:42:54.150Z,11.30
2017-11-05T04:45:22.438Z,11.40
2017-11-05T04:47:50.719Z,11.40
2017-11-05T04:50:19.021Z,11.40
2017-11-05T04:52:48.089Z,11.40
2017-11-05T04:55:16.380Z,11.30
2017-11-05T04:57:46.140Z,11.30
2017-11-05T05:00:14.450Z,11.30
2017-11-05T05:02:42.730Z,11.20
2017-11-05T05:05:11.045Z,11.20
2017-11-05T05:07:39.505Z,11.10
2017-11-05T05:10:08.539Z,11.00
2017-11-05T05:12:36.870Z,11.00
2017-11-05T05:15:05.179Z,11.00
2017-11-05T05:17:33.722Z,11.00
2017-11-05T05:20:02.012Z,11.10
2017-11-05T05:22:31.306Z,11.10
2017-11-05T05:24:59.590Z,11.10
2017-11-05T05:27:27.896Z,11.10
2017-11-05T05:29:56.189Z,11.10
2017-11-05T05:32:24.492Z,11.10
2017-11-05T05:34:52.795Z,11.10
2017-11-05T05:37:21.063Z,11.10
2017-11-05T05:39:49.494Z,11.10
2017-11-05T05:42:17.725Z,11.20
2017-11-05T05:44:46.047Z,11.20
2017-11-05T05:47:15.095Z,11.10
2017-11-05T05:49:43.370Z,11.10
2017-11-05T05:52:11.679Z,11.20
2017-11-05T05:54:40.740Z,11.20
2017-11-05T05:57:09.033Z,11.20
2017-11-05T05:59:37.294Z,11.10
2017-11-05T06:02:05.745Z,11.10
2017-11-05T06:04:34.300Z,11.00
2017-11-05T06:07:03.407Z,11.00
2017-11-05T06:09:31.689Z,11.00
2017-11-05T06:12:00.723Z,11.10
2017-11-05T06:14:29.009Z,11.00
2017-11-05T06:16:57.314Z,11.10
2017-11-05T06:19:25.629Z,11.00
2017-11-05T06:21:53.900Z,11.00
2017-11-05T06:24:22.206Z,11.00
2017-11-05T06:26:50.487Z,10.90
2017-11-05T06:29:18.778Z,10.90
2017-11-05T06:31:47.077Z,10.90
2017-11-05T06:34:15.450Z,10.80
2017-11-05T06:36:43.862Z,10.80
2017-11-05T06:39:12.558Z,10.70
2017-11-05T06:41:42.378Z,10.50
2017-11-05T06:44:11.436Z,10.50
2017-11-05T06:46:39.736Z,10.50
2017-11-05T06:49:07.980Z,10.60
2017-11-05T06:51:36.338Z,10.50
2017-11-05T06:54:04.596Z,10.50
2017-11-05T06:56:32.893Z,10.60
2017-11-05T06:59:01.156Z,10.60
2017-11-05T07:01:29.429Z,10.60
2017-11-05T07:03:58.251Z,10.50
2017-11-05T07:06:26.551Z,10.50
2017-11-05T07:08:54.893Z,10.50
2017-11-05T07:11:23.283Z,10.60
2017-11-05T07:13:51.609Z,10.60
2017-11-05T07:16:21.640Z,10.60
2017-11-05T07:18:49.948Z,10.50
2017-11-05T07:21:18.219Z,10.50
2017-11-05T07:23:46.711Z,10.50
2017-11-05T07:26:15.279Z,10.60
2017-11-05T07:28:43.544Z,10.50
2017-11-05T07:31:12.582Z,10.20
2017-11-05T07:33:40.882Z,10.20
2017-11-05T07:36:09.191Z,10.10
2017-11-05T07:38:37.489Z,9.90
2017-11-05T07:41:06.547Z,9.90
2017-11-05T07:43:35.570Z,9.90
2017-11-05T07:46:04.619Z,9.80
2017-11-05T07:48:33.712Z,9.80
2017-11-05T07:51:02.019Z,9.70
2017-11-05T07:53:30.334Z,9.70
2017-11-05T07:55:58.603Z,9.60
2017-11-05T07:58:26.900Z,9.60
2017-11-05T08:00:55.199Z,9.60
2017-11-05T08:03:23.466Z,9.50
2017-11-05T08:05:51.782Z,9.40
2017-11-05T08:08:20.058Z,9.40
2017-11-05T08:10:49.162Z,9.50
2017-11-05T08:13:18.197Z,9.50
2017-11-05T08:15:46.499Z,9.40
2017-11-05T08:18:14.807Z,9.40
2017-11-05T08:20:43.851Z,9.30
2017-11-05T08:23:12.189Z,9.20
2017-11-05T08:25:41.384Z,9.30
2017-11-05T08:28:09.675Z,9.20
2017-11-05T08:30:38.718Z,9.20
2017-11-05T08:33:07.024Z,9.20
2017-11-05T08:35:35.306Z,9.10
2017-11-05T08:38:03.563Z,9.10
2017-11-05T08:40:31.925Z,9.10
2017-11-05T08:43:00.171Z,9.00
2017-11-05T08:45:28.461Z,9.00
2017-11-05T08:47:56.766Z,8.90
2017-11-05T08:50:25.010Z,8.90
2017-11-05T08:52:54.110Z,8.90
2017-11-05T08:55:22.337Z,8.90
2017-11-05T08:57:50.599Z,8.90
2017-11-05T09:00:18.913Z,8.80
2017-11-05T09:02:47.938Z,8.70
2017-11-05T09:05:16.228Z,8.70
2017-11-05T09:07:44.510Z,8.70
2017-11-05T09:10:12.777Z,8.60
2017-11-05T09:12:41.076Z,8.70
2017-11-05T09:15:09.321Z,8.70
2017-11-05T09:17:37.618Z,8.70
2017-11-05T09:20:05.951Z,8.70
2017-11-05T09:22:34.219Z,8.70
2017-11-05T09:25:02.474Z,8.70
2017-11-05T09:27:30.747Z,8.70
2017-11-05T09:29:59.052Z,8.60
2017-11-05T09:32:27.344Z,8.70
2017-11-05T09:34:56.344Z,8.80
2017-11-05T09:37:25.395Z,8.70
2017-11-05T09:39:53.657Z,8.60
2017-11-05T09:42:21.915Z,8.70
2017-11-05T09:44:51.190Z,8.70
2017-11-05T09:47:20.249Z,8.70
2017-11-05T09:49:48.500Z,8.70
2017-11-05T09:52:16.796Z,8.60
2017-11-05T09:54:45.110Z,8.50
2017-11-05T09:57:14.219Z,8.50
2017-11-05T09:59:43.270Z,8.60
2017-11-05T10:02:11.795Z,8.60
2017-11-05T10:04:40.296Z,8.50
2017-11-05T10:07:08.554Z,8.50
2017-11-05T10:09:37.619Z,8.40
2017-11-05T10:12:05.920Z,8.40
2017-11-05T10:14:35.181Z,8.50
2017-11-05T10:17:03.442Z,8.50
2017-11-05T10:19:31.838Z,8.60
2017-11-05T10:22:00.117Z,8.60
2017-11-05T10:24:28.449Z,8.50
2017-11-05T10:26:58.354Z,8.30
2017-11-05T10:29:26.608Z,8.30
2017-11-05T10:31:55.038Z,8.10
2017-11-05T10:34:23.322Z,8.20
2017-11-05T10:36:52.378Z,8.10
2017-11-05T10:39:21.679Z,8.10
2017-11-05T10:41:50.219Z,8.10
2017-11-05T10:44:18.772Z,8.10
2017-11-05T10:46:47.193Z,8.10
2017-11-05T10:49:15.581Z,8.10
2017-11-05T10:51:43.894Z,8.10
2017-11-05T10:54:12.168Z,8.20
2017-11-05T10:56:41.189Z,8.30
2017-11-05T10:59:12.182Z,8.20
2017-11-05T11:01:40.620Z,8.30
2017-11-05T11:04:10.191Z,8.20
2017-11-05T11:06:38.477Z,8.20
2017-11-05T11:09:07.058Z,8.10
2017-11-05T11:11:35.664Z,8.10
2017-11-05T11:14:04.915Z,8.00
2017-11-05T11:16:33.223Z,8.00
2017-11-05T11:19:01.499Z,8.10
2017-11-05T11:21:29.756Z,8.00
2017-11-05T11:23:58.114Z,8.00
2017-11-05T11:26:26.867Z,8.10
2017-11-05T11:28:56.058Z,8.10
2017-11-05T11:31:25.606Z,8.20
2017-11-05T11:33:53.996Z,8.20
2017-11-05T11:36:22.274Z,8.20
2017-11-05T11:38:50.560Z,8.30
2017-11-05T11:41:18.860Z,8.30
2017-11-05T11:43:47.954Z,8.30
2017-11-05T11:46:17.013Z,8.40
2017-11-05T11:48:45.737Z,8.40
2017-11-05T11:51:14.011Z,8.40
2017-11-05T11:53:42.329Z,8.40
2017-11-05T11:56:12.212Z,8.60
2017-11-05T11:58:40.518Z,8.50
2017-11-05T12:01:09.611Z,8.60
2017-11-05T12:03:38.722Z,8.60
2017-11-05T12:06:07.003Z,8.60
2017-11-05T12:08:35.290Z,8.80
2017-11-05T12:11:03.598Z,8.90
2017-11-05T12:13:31.890Z,9.00
2017-11-05T12:16:00.159Z,9.10
2017-11-05T12:18:29.221Z,9.10
2017-11-05T12:20:57.617Z,9.00
2017-11-05T12:23:25.902Z,9.00
2017-11-05T12:25:57.767Z,8.90
2017-11-05T12:28:26.682Z,8.90
2017-11-05T12:30:55.954Z,8.80
2017-11-05T12:33:24.290Z,8.80
2017-11-05T12:35:52.830Z,8.80
2017-11-05T12:38:21.299Z,8.90
2017-11-05T12:40:50.049Z,9.00
2017-11-05T12:43:19.340Z,9.00
2017-11-05T12:45:47.618Z,9.00
2017-11-05T12:48:15.923Z,9.10
2017-11-05T12:50:44.357Z,9.30
2017-11-05T12:53:12.584Z,9.40
2017-11-05T12:55:40.933Z,9.50
2017-11-05T12:58:09.977Z,9.40
2017-11-05T13:00:38.248Z,9.40
2017-11-05T13:03:06.539Z,9.50
2017-11-05T13:05:34.939Z,9.50
2017-11-05T13:08:03.219Z,9.50
2017-11-05T13:10:33.232Z,9.70
2017-11-05T13:13:01.450Z,9.70
2017-11-05T13:15:29.802Z,9.70
2017-11-05T13:17:58.144Z,9.60
2017-11-05T13:20:27.382Z,9.50
2017-11-05T13:22:56.672Z,9.50
2017-11-05T13:25:24.962Z,9.60
2017-11-05T13:27:54.008Z,9.50
2017-11-05T13:30:22.290Z,9.50
2017-11-05T13:32:50.690Z,9.40
2017-11-05T13:35:20.287Z,9.20
2017-11-05T13:37:48.615Z,9.20
2017-11-05T13:40:16.965Z,9.20
2017-11-05T13:42:45.270Z,9.30
2017-11-05T13:45:14.543Z,9.40
2017-11-05T13:47:42.800Z,9.40
2017-11-05T13:50:11.978Z,9.40
2017-11-05T13:52:40.265Z,9.40
2017-11-05T13:55:09.191Z,9.50
2017-11-05T13:57:38.613Z,9.30
2017-11-05T14:00:07.771Z,9.30
2017-11-05T14:02:36.133Z,9.30
2017-11-05T14:05:04.446Z,9.30
2017-11-05T14:07:32.710Z,9.30
2017-11-05T14:10:01.124Z,9.40
2017-11-05T14:12:30.214Z,9.30
2017-11-05T14:14:59.293Z,9.30
2017-11-05T14:17:27.611Z,9.30
2017-11-05T14:19:56.630Z,9.20
2017-11-05T14:22:24.887Z,9.20
2017-11-05T14:24:53.250Z,9.20
2017-11-05T14:27:21.623Z,9.30
2017-11-05T14:29:51.497Z,9.40
2017-11-05T14:32:19.788Z,9.40
2017-11-05T14:34:48.915Z,9.30
2017-11-05T14:37:17.199Z,9.40
2017-11-05T14:39:46.590Z,9.50
2017-11-05T14:42:14.864Z,9.40
2017-11-05T14:44:44.158Z,9.50
2017-11-05T14:47:13.197Z,9.50
2017-11-05T14:49:41.471Z,9.50
2017-11-05T14:52:09.793Z,9.60
2017-11-05T14:54:38.088Z,9.60
2017-11-05T14:57:07.234Z,9.50
2017-11-05T14:59:35.562Z,9.50
2017-11-05T15:02:04.864Z,9.40
2017-11-05T15:04:33.208Z,9.40
2017-11-05T15:07:03.904Z,9.40
2017-11-05T15:09:33.158Z,9.40
2017-11-05T15:12:01.567Z,9.40
2017-11-05T15:14:29.878Z,9.40
2017-11-05T15:16:58.154Z,9.40
2017-11-05T15:19:27.375Z,9.40
2017-11-05T15:21:56.923Z,9.40
2017-11-05T15:24:25.823Z,9.30
2017-11-05T15:26:54.922Z,9.20
2017-11-05T15:29:24.141Z,9.20
2017-11-05T15:31:53.197Z,9.20
2017-11-05T15:34:21.487Z,9.20
2017-11-05T15:36:49.762Z,9.20
2017-11-05T15:39:20.410Z,9.10
2017-11-05T15:41:48.868Z,9.10
2017-11-05T15:44:19.219Z,9.10
2017-11-05T15:46:47.495Z,9.10
2017-11-05T15:49:15.833Z,9.00
2017-11-05T15:51:45.478Z,9.00
2017-11-05T15:54:14.161Z,8.90
2017-11-05T15:56:43.254Z,8.80
2017-11-05T15:59:12.330Z,8.80
2017-11-05T16:01:40.706Z,8.80
2017-11-05T16:04:08.980Z,8.80
2017-11-05T16:06:38.061Z,8.70
2017-11-05T16:09:06.393Z,8.50
2017-11-05T16:11:34.662Z,8.40
2017-11-05T16:14:03.156Z,8.30
2017-11-05T16:16:33.077Z,8.00
2017-11-05T16:19:02.864Z,7.70
2017-11-05T16:21:31.140Z,7.70
2017-11-05T16:23:59.431Z,7.50
2017-11-05T16:26:39.327Z,7.10
2017-11-05T16:29:07.638Z,7.00
2017-11-05T16:31:36.035Z,7.00
2017-11-05T16:34:04.604Z,7.00
2017-11-05T16:36:33.714Z,7.10
2017-11-05T16:39:02.952Z,7.20
2017-11-05T16:41:31.985Z,7.30
2017-11-05T16:44:02.629Z,7.30
2017-11-05T16:46:31.738Z,7.30
2017-11-05T16:49:00.428Z,7.20
2017-11-05T16:51:28.691Z,7.20
2017-11-05T16:53:57.885Z,7.10
2017-11-05T16:56:26.764Z,7.00
2017-11-05T16:58:55.929Z,7.10
2017-11-05T17:01:25.236Z,7.00
2017-11-05T17:03:55.727Z,7.00
2017-11-05T17:06:24.169Z,7.00
2017-11-05T17:08:52.778Z,7.00
2017-11-05T17:11:22.339Z,7.10
2017-11-05T17:13:52.538Z,7.10
2017-11-05T17:16:21.733Z,7.10
2017-11-05T17:18:51.407Z,7.00
2017-11-05T17:21:19.907Z,7.10
2017-11-05T17:23:48.666Z,7.20
2017-11-05T17:26:17.312Z,7.20
2017-11-05T17:28:47.352Z,7.20
2017-11-05T17:31:16.132Z,7.30
2017-11-05T17:33:45.246Z,7.20
2017-11-05T17:36:17.318Z,7.20
2017-11-05T17:38:45.910Z,7.20
2017-11-05T17:41:15.663Z,7.20
2017-11-05T17:43:44.757Z,7.30
2017-11-05T17:46:14.624Z,7.30
2017-11-05T17:48:45.569Z,7.30
2017-11-05T17:51:16.953Z,7.30
2017-11-05T17:53:45.399Z,7.30
2017-11-05T17:56:15.661Z,7.30
2017-11-05T17:58:44.011Z,7.30
2017-11-05T18:01:12.302Z,7.40
2017-11-05T18:03:40.559Z,7.30
2017-11-05T18:06:08.867Z,7.30
2017-11-05T18:08:37.130Z,7.30
2017-11-05T18:11:05.436Z,7.30
2017-11-05T18:13:34.029Z,7.30
2017-11-05T18:16:02.608Z,7.30
2017-11-05T18:18:31.677Z,7.30
2017-11-05T18:20:59.989Z,7.30
2017-11-05T18:23:29.052Z,7.40
2017-11-05T18:25:57.443Z,7.40
2017-11-05T18:28:26.343Z,7.30
2017-11-05T18:30:54.622Z,7.30
2017-11-05T18:33:25.149Z,7.30
2017-11-05T18:35:53.387Z,7.30
2017-11-05T18:38:22.520Z,7.40
2017-11-05T18:40:50.823Z,7.30
2017-11-05T18:43:19.182Z,7.40
2017-11-05T18:45:47.537Z,7.40
2017-11-05T18:48:15.856Z,7.40
2017-11-05T18:50:44.544Z,7.40
2017-11-05T18:53:14.003Z,7.30
2017-11-05T18:55:42.353Z,7.20
2017-11-05T18:58:11.841Z,7.20
2017-11-05T19:00:41.478Z,7.20
2017-11-05T19:03:12.817Z,7.30
2017-11-05T19:05:41.177Z,7.30
2017-11-05T19:08:12.748Z,7.30
2017-11-05T19:10:41.457Z,7.30
2017-11-05T19:13:09.909Z,7.10
2017-11-05T19:15:41.262Z,7.10
2017-11-05T19:18:09.613Z,7.10
2017-11-05T19:20:37.991Z,7.20
2017-11-05T19:23:06.471Z,7.10
2017-11-05T19:25:34.848Z,7.10
2017-11-05T19:28:03.200Z,7.10
2017-11-05T19:30:31.502Z,7.10
2017-11-05T19:32:59.907Z,7.10
2017-11-05T19:35:29.345Z,7.00
2017-11-05T19:37:58.213Z,7.00
2017-11-05T19:40:28.340Z,7.00
2017-11-05T19:42:56.753Z,7.00
2017-11-05T19:45:25.075Z,6.70
2017-11-05T19:47:54.163Z,7.00
2017-11-05T19:50:22.495Z,6.90
2017-11-05T19:52:52.203Z,6.80
2017-11-05T19:55:20.524Z,6.80
2017-11-05T19:57:49.620Z,6.60
2017-11-05T20:00:17.919Z,6.60
2017-11-05T20:02:46.291Z,6.50
2017-11-05T20:05:14.576Z,6.50
2017-11-05T20:07:44.389Z,6.50
2017-11-05T20:10:14.730Z,6.50
2017-11-05T20:12:44.434Z,6.50
2017-11-05T20:15:13.728Z,6.50
2017-11-05T20:17:42.742Z,6.50
2017-11-05T20:20:11.959Z,6.50
2017-11-05T20:22:41.560Z,6.50
2017-11-05T20:25:11.361Z,6.40
2017-11-05T20:27:40.524Z,6.20
2017-11-05T20:30:12.268Z,6.20
2017-11-05T20:32:42.103Z,6.10
2017-11-05T20:35:10.548Z,6.10
2017-11-05T20:37:40.647Z,6.10
2017-11-05T20:40:11.168Z,6.10
2017-11-05T20:42:40.377Z,6.10
2017-11-05T20:45:09.755Z,6.00
2017-11-05T20:47:39.032Z,6.20
2017-11-05T20:50:07.421Z,6.10
2017-11-05T20:52:38.619Z,6.10
2017-11-05T20:55:06.888Z,6.10
2017-11-05T20:57:35.199Z,6.10
2017-11-05T21:00:04.804Z,6.20
2017-11-05T21:02:33.878Z,6.10
2017-11-05T21:05:03.532Z,6.10
2017-11-05T21:07:33.306Z,6.10
2017-11-05T21:10:02.483Z,6.10
2017-11-05T21:12:31.210Z,6.10
2017-11-05T21:15:02.004Z,6.00
2017-11-05T21:17:31.389Z,6.00
2017-11-05T21:19:59.824Z,5.90
2017-11-05T21:22:28.313Z,5.90
2017-11-05T21:24:56.713Z,6.00
2017-11-05T21:27:25.200Z,5.90
2017-11-05T21:29:53.479Z,5.90
2017-11-05T21:32:22.556Z,5.70
2017-11-05T21:34:56.313Z,5.70
2017-11-05T21:37:25.553Z,5.60
2017-11-05T21:39:53.847Z,5.50
2017-11-05T21:42:23.082Z,5.50
2017-11-05T21:44:52.229Z,5.50
2017-11-05T21:47:21.372Z,5.50
2017-11-05T21:49:50.424Z,5.50
2017-11-05T21:52:21.773Z,5.40
2017-11-05T21:54:50.585Z,5.40
2017-11-05T21:57:19.080Z,5.50
2017-11-05T21:59:47.356Z,5.40
2017-11-05T22:02:15.648Z,5.40
2017-11-05T22:04:43.950Z,5.30
2017-11-05T22:07:14.384Z,5.30
2017-11-05T22:09:42.980Z,5.40
2017-11-05T22:12:11.253Z,5.50
2017-11-05T22:14:39.543Z,5.60
2017-11-05T22:17:07.823Z,5.40
2017-11-05T22:19:36.063Z,5.40
2017-11-05T22:22:05.092Z,5.40
2017-11-05T22:24:33.430Z,5.40
2017-11-05T22:27:01.736Z,5.30
2017-11-05T22:29:31.095Z,5.30
2017-11-05T22:32:10.616Z,5.20
2017-11-05T22:34:38.874Z,5.20
2017-11-05T22:37:07.243Z,5.10
2017-11-05T22:39:35.503Z,5.00
2017-11-05T22:42:03.823Z,5.00
2017-11-05T22:44:33.681Z,4.90
2017-11-05T22:47:02.001Z,4.90
2017-11-05T22:49:30.302Z,4.90
2017-11-05T22:51:59.234Z,4.90
2017-11-05T22:54:29.010Z,4.90
2017-11-05T22:56:57.312Z,4.80
2017-11-05T22:59:26.353Z,4.80
2017-11-05T23:01:55.537Z,4.80
2017-11-05T23:04:23.843Z,4.70
2017-11-05T23:06:52.071Z,4.80
2017-11-05T23:09:20.333Z,4.70
2017-11-05T23:11:48.620Z,4.70
2017-11-05T23:14:17.707Z,4.60
2017-11-05T23:16:47.458Z,4.60
2017-11-05T23:19:15.739Z,4.60
2017-11-05T23:21:44.010Z,4.60
2017-11-05T23:24:12.301Z,4.60
2017-11-05T23:26:40.582Z,4.60
2017-11-05T23:29:09.678Z,4.50
2017-11-05T23:31:37.924Z,4.50
2017-11-05T23:34:06.262Z,4.50
2017-11-05T23:36:35.098Z,4.60
2017-11-05T23:39:03.369Z,4.60
2017-11-05T23:41:31.612Z,4.60
2017-11-05T23:44:00.049Z,4.70
2017-11-05T23:46:28.351Z,4.70
2017-11-05T23:48:56.641Z,4.70
2017-11-05T23:51:24.881Z,4.60
2017-11-05T23:53:53.171Z,4.60
2017-11-05T23:56:21.428Z,4.50
2017-11-05T23:58:50.131Z,4.50
